HOURLY OBS INDEX

030

Upper Carpentaria

GEORGETOWN AIRPORT

Site: 030124
Alt: 301.8m
270km ESE of NORMANTON


  Time     Wind        Temp  DP   Baro     Rain since   Rain past  Vis(m), Cloud(base in m), Weather
  local        km/h                         9am  last   hr   10m    
Wed 15:00  SSE 17/ 35  32.7  5.3  1011.2    0.0   0.0   0.0   0.0   10000 
Wed 15:30    S 15/ 26  33.2  4.0  1010.7    0.0   0.0   0.0   0.0   10000 
Wed 16:00  SSE  7/ 17  33.3  4.1  1010.7    0.0   0.0   0.0   0.0   10000 
Wed 16:30  SSE 15/ 24  33.1  4.8  1011.0    0.0   0.0   0.0   0.0   10000 
Wed 17:00  ESE  9/ 15  33.0  5.5  1011.0    0.0   0.0   0.0   0.0   10000 
Wed 17:30   SE 15/ 24  32.4  5.8  1011.2    0.0   0.0   0.0   0.0   10000 
Wed 18:00    E  9/ 17  31.7  6.0  1011.3    0.0   0.0   0.0   0.0   10000 
Wed 18:30    E  9/ 15  30.3  6.2  1011.6    0.0   0.0   0.0   0.0   10000 
Wed 19:00    E  9/ 11  29.1  5.9  1011.9    0.0   0.0   0.0   0.0   10000 
Wed 19:30    E  7/  9  28.0  6.2  1012.3    0.0   0.0   0.0   0.0   10000 
Wed 20:00    E  6/  7  26.4  6.4  1012.7    0.0   0.0   0.0   0.0   10000 
Wed 20:30    C  0/  0  24.7  6.4  1013.1    0.0   0.0   0.0   0.0   10000 

HUGHENDEN AIRPORT

Site: 030022
Alt: 316.4m
5km ENE of HUGHENDEN


  Time     Wind        Temp  DP   Baro     Rain since   Rain past  Vis(m), Cloud(base in m), Weather
  local        km/h                         9am  last   hr   10m    
Wed 15:00  ESE  7/ 15  33.1  1.0  1011.6    0.0   0.0   0.0   0.0   10000 
Wed 15:30    W  7/ 17  33.4  1.3  1011.3    0.0   0.0   0.0   0.0   10000 
Wed 16:00  WSW  9/ 20  33.1  1.0  1011.2    0.0   0.0   0.0   0.0   10000|SC3300 
Wed 16:30  SSE  7/ 15  33.2  1.1  1011.3    0.0   0.0   0.0   0.0   10000 
Wed 17:00    S 13/ 20  32.9  0.9  1011.5    0.0   0.0   0.0   0.0   10000 
Wed 17:30  SSW 15/ 22  32.8  0.8  1011.6    0.0   0.0   0.0   0.0   10000 
Wed 18:00    S 17/ 20  31.7  1.0  1011.9    0.0   0.0   0.0   0.0   10000 
Wed 18:30  SSW 11/ 13  30.3  0.8  1012.3    0.0   0.0   0.0   0.0   10000 
Wed 19:00    S 11/ 13  29.0  0.7  1012.8    0.0   0.0   0.0   0.0   10000 
Wed 19:30  SSE 11/ 17  28.0  1.5  1013.1    0.0   0.0   0.0   0.0   10000 
Wed 20:00  SSE 11/ 11  26.5  1.0  1013.6    0.0   0.0   0.0   0.0   10000 
Wed 20:30  SSW  9/ 13  24.6  0.8  1013.8    0.0   0.0   0.0   0.0   10000 

RICHMOND AIRPORT

Site: 030161
Alt: 206.3m
112km W of HUGHENDEN


  Time     Wind        Temp  DP   Baro     Rain since   Rain past  Vis(m), Cloud(base in m), Weather
  local        km/h                         9am  last   hr   10m    
Wed 15:00   SW 17/ 33  34.1  0.7  1011.2    0.0   0.0   0.0   0.0   10000 
Wed 15:30   SW 17/ 33  34.5  1.0  1011.0    0.0   0.0   0.0   0.0   10000 
Wed 16:00  WSW  9/ 17  34.7 -0.1  1010.9    0.0   0.0   0.0   0.0   10000 
Wed 16:30    S 17/ 32  33.9 -0.7  1011.0    0.0   0.0   0.0   0.0   10000 
Wed 17:00    S 17/ 26  34.0 -0.6  1011.1    0.0   0.0   0.0   0.0   10000 
Wed 17:30    S 15/ 20  33.6 -0.9  1011.2    0.0   0.0   0.0   0.0   10000 
Wed 18:00  SSE 13/ 17  31.9 -2.2  1011.5    0.0   0.0   0.0   0.0   10000 
Wed 18:30    S 13/ 15  29.2 -3.1  1011.8    0.0   0.0   0.0   0.0   10000 
Wed 19:00    S 13/ 15  27.4 -2.4  1012.3    0.0   0.0   0.0   0.0   10000 
Wed 19:30  SSE 11/ 13  26.3 -3.3  1012.6    0.0   0.0   0.0   0.0   10000 
Wed 20:00  SSE 15/ 17  24.7 -3.6  1013.0    0.0   0.0   0.0   0.0   10000 
Wed 20:30    S 13/ 17  22.0 -5.8  1013.2    0.0   0.0   0.0   0.0   10000